Hovedside
METAR-TAF:

METAR-TAF

Lufthavner :

Værøy helikopterhavn. Tabbisodden

Værøy, Norge

breddegrad: 67-39-16N, lengdegrad: 12-43-37E, høyde over havet: 5 m

Gjeldene værobservasjon

Denne rapporten ble laget for 6 timer og 55 minutter siden, klokken 06:50 UTC
Vind 15 kt fra Sør-sørvest
Temperatur 9°C
Luftfuktighet 87%
Trykk 1007 hPa
Sikt: 5000 m
Få skyer i en høyde av 1400 ft
Spredte skyer i en høyde av 2000 ft
Brutte skyer i en høyde av 4000 ft
lett regn

METAR: ENVR 150650Z 21015KT 5000 -RA FEW014 SCT020 BKN040 09/07 Q1007

Tid: 14:45 (13:45 UTC)


TAF: fraværende

Værobservasjoner og værvarsel for over 4000 flyplasser (METAR- og TAF-rapporter).

Tilgjengelige stasjoner er representert av de røde og gule prikkene på kartet.

Hold musepekeren over prikken for å se navnet på stasjonen.

Klikk så for å se værobservasjoner og -varsler.

For å forandre kartet kan du klikke på den grønne knappen med svart kryss for å zoome inn, på den grønne knappen med strek for å zoome ut, eller på de grønne pilene for å se tilstøtende kart.


METAR-TAF: